createdAt,value
2018-07-22T00:02:26.108Z,18.30
2018-07-22T00:04:54.754Z,18.20
2018-07-22T00:07:23.119Z,18.30
2018-07-22T00:09:51.546Z,18.30
2018-07-22T00:12:20.042Z,18.20
2018-07-22T00:14:48.610Z,18.10
2018-07-22T00:17:17.204Z,18.00
2018-07-22T00:19:45.763Z,18.00
2018-07-22T00:22:14.230Z,18.00
2018-07-22T00:24:42.906Z,18.00
2018-07-22T00:27:11.561Z,18.00
2018-07-22T00:29:39.963Z,18.00
2018-07-22T00:32:09.292Z,18.00
2018-07-22T00:34:37.922Z,18.10
2018-07-22T00:37:06.561Z,18.10
2018-07-22T00:39:35.423Z,18.00
2018-07-22T00:42:03.827Z,18.10
2018-07-22T00:44:32.229Z,18.00
2018-07-22T00:47:01.775Z,18.10
2018-07-22T00:49:30.181Z,18.00
2018-07-22T00:51:59.839Z,18.00
2018-07-22T00:54:29.175Z,18.00
2018-07-22T00:56:57.575Z,18.00
2018-07-22T00:59:26.300Z,18.00
2018-07-22T01:01:55.018Z,18.00
2018-07-22T01:04:23.495Z,17.90
2018-07-22T01:06:52.285Z,18.00
2018-07-22T01:09:20.748Z,17.90
2018-07-22T01:11:49.216Z,17.90
2018-07-22T01:14:17.625Z,17.90
2018-07-22T01:16:46.084Z,17.80
2018-07-22T01:19:14.576Z,17.80
2018-07-22T01:21:43.059Z,17.80
2018-07-22T01:24:11.673Z,17.80
2018-07-22T01:26:40.298Z,17.70
2018-07-22T01:29:09.051Z,17.70
2018-07-22T01:31:37.795Z,17.70
2018-07-22T01:34:06.902Z,17.70
2018-07-22T01:36:35.239Z,17.70
2018-07-22T01:39:05.742Z,17.60
2018-07-22T01:41:34.144Z,17.70
2018-07-22T01:44:02.501Z,17.60
2018-07-22T01:46:30.876Z,17.60
2018-07-22T01:48:59.925Z,17.60
2018-07-22T01:51:28.320Z,17.60
2018-07-22T01:53:56.804Z,17.50
2018-07-22T01:56:25.149Z,17.50
2018-07-22T01:58:53.771Z,17.40
2018-07-22T02:03:50.334Z,17.30
2018-07-22T02:06:18.830Z,17.30
2018-07-22T02:08:47.323Z,17.30
2018-07-22T02:11:15.769Z,17.20
2018-07-22T02:13:44.241Z,17.20
2018-07-22T02:16:13.309Z,17.10
2018-07-22T02:18:41.852Z,17.10
2018-07-22T02:21:10.217Z,17.10
2018-07-22T02:23:39.053Z,17.00
2018-07-22T02:28:35.746Z,17.00
2018-07-22T02:31:04.464Z,16.90
2018-07-22T02:33:33.304Z,16.90
2018-07-22T02:36:01.640Z,16.90
2018-07-22T02:38:30.073Z,16.90
2018-07-22T02:40:58.985Z,16.90
2018-07-22T02:43:27.828Z,16.80
2018-07-22T02:45:56.384Z,16.70
2018-07-22T02:48:25.862Z,16.70
2018-07-22T02:50:54.467Z,16.70
2018-07-22T02:53:23.103Z,16.70
2018-07-22T02:55:51.536Z,16.70
2018-07-22T02:58:20.026Z,16.70
2018-07-22T03:00:48.389Z,16.70
2018-07-22T03:03:17.006Z,16.70
2018-07-22T03:05:45.410Z,16.60
2018-07-22T03:08:13.802Z,16.60
2018-07-22T03:10:42.182Z,16.60
2018-07-22T03:13:10.719Z,16.60
2018-07-22T03:15:39.077Z,16.60
2018-07-22T03:18:07.484Z,16.60
2018-07-22T03:20:35.954Z,16.50
2018-07-22T03:23:04.339Z,16.50
2018-07-22T03:25:32.772Z,16.50
2018-07-22T03:28:01.239Z,16.50
2018-07-22T03:30:29.888Z,16.40
2018-07-22T03:32:59.130Z,16.40
2018-07-22T03:35:28.548Z,16.40
2018-07-22T03:37:56.860Z,16.40
2018-07-22T03:40:25.363Z,16.30
2018-07-22T03:42:53.729Z,16.30
2018-07-22T03:45:22.761Z,16.20
2018-07-22T03:47:51.048Z,16.20
2018-07-22T03:50:19.478Z,16.20
2018-07-22T03:52:47.856Z,16.20
2018-07-22T03:55:16.385Z,16.20
2018-07-22T03:57:44.746Z,16.20
2018-07-22T04:00:13.196Z,16.20
2018-07-22T04:02:41.580Z,16.20
2018-07-22T04:05:10.058Z,16.20
2018-07-22T04:07:38.458Z,16.20
2018-07-22T04:10:06.913Z,16.20
2018-07-22T04:12:35.422Z,16.20
2018-07-22T04:15:03.889Z,16.30
2018-07-22T04:17:32.517Z,16.30
2018-07-22T04:20:01.197Z,16.40
2018-07-22T04:22:29.567Z,16.50
2018-07-22T04:24:58.209Z,16.60
2018-07-22T04:27:27.038Z,16.70
2018-07-22T04:29:55.481Z,16.70
2018-07-22T04:32:24.593Z,16.70
2018-07-22T04:34:53.763Z,16.70
2018-07-22T04:37:22.134Z,16.80
2018-07-22T04:39:51.089Z,16.90
2018-07-22T04:42:19.500Z,17.10
2018-07-22T04:44:48.053Z,17.20
2018-07-22T04:47:16.524Z,17.20
2018-07-22T04:52:12.997Z,17.50
2018-07-22T04:54:41.347Z,17.70
2018-07-22T04:57:09.852Z,17.90
2018-07-22T04:59:38.312Z,18.00
2018-07-22T05:02:06.696Z,18.20
2018-07-22T05:04:36.856Z,18.30
2018-07-22T05:07:05.846Z,18.40
2018-07-22T05:09:34.233Z,18.70
2018-07-22T05:12:02.875Z,18.90
2018-07-22T05:14:31.295Z,19.10
2018-07-22T05:16:59.749Z,19.30
2018-07-22T05:19:28.085Z,19.60
2018-07-22T05:21:56.486Z,19.80
2018-07-22T05:24:24.921Z,19.90
2018-07-22T05:26:53.352Z,20.10
2018-07-22T05:29:21.742Z,20.20
2018-07-22T05:31:50.412Z,20.30
2018-07-22T05:34:18.790Z,20.40
2018-07-22T05:36:47.286Z,20.40
2018-07-22T05:39:15.694Z,20.60
2018-07-22T05:41:44.140Z,20.70
2018-07-22T05:44:12.571Z,20.90
2018-07-22T05:46:41.039Z,21.00
2018-07-22T05:49:09.394Z,21.20
2018-07-22T05:51:37.795Z,21.40
2018-07-22T05:54:06.285Z,21.70
2018-07-22T05:56:34.602Z,21.70
2018-07-22T05:59:03.090Z,21.80
2018-07-22T06:01:31.845Z,22.00
2018-07-22T06:04:00.336Z,22.20
2018-07-22T06:06:28.924Z,22.50
2018-07-22T06:08:57.363Z,22.40
2018-07-22T06:11:25.820Z,22.20
2018-07-22T06:13:54.286Z,22.10
2018-07-22T06:16:23.298Z,22.10
2018-07-22T06:18:51.736Z,22.10
2018-07-22T06:21:21.247Z,21.50
2018-07-22T06:23:49.654Z,20.80
2018-07-22T06:26:19.257Z,20.70
2018-07-22T06:28:48.123Z,20.60
2018-07-22T06:31:16.852Z,20.60
2018-07-22T06:33:45.511Z,20.60
2018-07-22T06:36:13.944Z,20.60
2018-07-22T06:38:42.640Z,20.60
2018-07-22T06:41:11.679Z,20.70
2018-07-22T06:43:40.199Z,20.80
2018-07-22T06:46:09.286Z,20.60
2018-07-22T06:48:37.996Z,20.80
2018-07-22T06:51:08.239Z,21.50
2018-07-22T06:53:36.754Z,22.40
2018-07-22T06:56:05.251Z,22.50
2018-07-22T06:58:33.615Z,22.00
2018-07-22T07:01:02.192Z,21.80
2018-07-22T07:03:30.621Z,21.50
2018-07-22T07:05:59.200Z,22.10
2018-07-22T07:08:28.045Z,22.00
2018-07-22T07:10:56.424Z,22.00
2018-07-22T07:13:24.879Z,21.80
2018-07-22T07:15:53.459Z,21.90
2018-07-22T07:18:21.968Z,22.10
2018-07-22T07:20:50.551Z,22.10
2018-07-22T07:23:18.832Z,21.80
2018-07-22T07:25:47.314Z,22.00
2018-07-22T07:28:15.873Z,22.30
2018-07-22T07:30:44.742Z,22.30
2018-07-22T07:33:13.786Z,22.30
2018-07-22T07:35:42.178Z,22.10
2018-07-22T07:38:11.322Z,21.70
2018-07-22T07:40:39.825Z,21.90
2018-07-22T07:43:08.297Z,22.10
2018-07-22T07:45:37.731Z,22.20
2018-07-22T07:48:07.030Z,23.00
2018-07-22T07:50:35.796Z,24.20
2018-07-22T07:53:04.233Z,24.80
2018-07-22T07:55:32.738Z,24.30
2018-07-22T07:58:01.332Z,23.80
2018-07-22T08:00:30.689Z,24.80
2018-07-22T08:02:59.644Z,25.40
2018-07-22T08:05:29.075Z,25.30
2018-07-22T08:07:57.741Z,25.40
2018-07-22T08:10:26.506Z,25.90
2018-07-22T08:12:55.060Z,25.50
2018-07-22T08:15:23.588Z,25.70
2018-07-22T08:17:52.169Z,26.10
2018-07-22T08:20:20.660Z,26.80
2018-07-22T08:22:49.156Z,27.10
2018-07-22T08:25:17.570Z,27.60
2018-07-22T08:27:47.452Z,28.00
2018-07-22T08:30:16.671Z,28.00
2018-07-22T08:32:45.591Z,27.90
2018-07-22T08:35:14.561Z,28.10
2018-07-22T08:37:44.989Z,27.90
2018-07-22T08:40:15.003Z,27.60
2018-07-22T08:42:43.680Z,28.30
2018-07-22T08:45:12.349Z,28.70
2018-07-22T08:47:41.581Z,28.80
2018-07-22T08:50:10.264Z,28.60
2018-07-22T08:52:39.314Z,29.00
2018-07-22T08:55:09.268Z,29.30
2018-07-22T08:57:37.916Z,29.40
2018-07-22T09:00:07.258Z,29.50
2018-07-22T09:02:38.058Z,29.90
2018-07-22T09:05:07.638Z,30.00
2018-07-22T09:07:36.619Z,30.30
2018-07-22T09:10:05.269Z,30.50
2018-07-22T09:12:33.703Z,30.00
2018-07-22T09:15:03.853Z,29.70
2018-07-22T09:17:33.623Z,30.20
2018-07-22T09:20:02.583Z,30.50
2018-07-22T09:22:31.585Z,30.60
2018-07-22T09:25:00.449Z,30.70
2018-07-22T09:27:29.850Z,29.80
2018-07-22T09:29:59.662Z,29.90
2018-07-22T09:32:29.003Z,28.50
2018-07-22T09:34:57.773Z,27.60
2018-07-22T09:37:26.748Z,28.40
2018-07-22T09:39:55.148Z,29.10
2018-07-22T09:42:23.918Z,30.10
2018-07-22T09:44:52.700Z,29.40
2018-07-22T09:47:21.918Z,29.90
2018-07-22T09:49:51.309Z,28.50
2018-07-22T09:52:20.496Z,29.50
2018-07-22T09:54:50.122Z,30.60
2018-07-22T09:57:19.472Z,30.50
2018-07-22T09:59:48.292Z,28.20
2018-07-22T10:02:16.733Z,29.10
2018-07-22T10:04:45.892Z,30.00
2018-07-22T10:07:14.747Z,29.80
2018-07-22T10:09:46.432Z,29.50
2018-07-22T10:12:16.711Z,29.40
2018-07-22T10:14:47.314Z,30.00
2018-07-22T10:17:16.470Z,29.10
2018-07-22T10:19:45.145Z,29.20
2018-07-22T10:22:13.604Z,28.90
2018-07-22T10:24:42.220Z,30.10
2018-07-22T10:27:11.150Z,31.10
2018-07-22T10:29:40.163Z,31.40
2018-07-22T10:32:09.900Z,31.50
2018-07-22T10:34:43.169Z,32.00
2018-07-22T10:37:11.946Z,32.60
2018-07-22T10:39:40.821Z,32.90
2018-07-22T10:42:10.868Z,31.10
2018-07-22T10:44:40.179Z,30.40
2018-07-22T10:47:08.519Z,31.30
2018-07-22T10:49:37.208Z,30.50
2018-07-22T10:52:05.909Z,31.10
2018-07-22T10:54:36.219Z,30.70
2018-07-22T10:57:05.972Z,31.30
2018-07-22T11:02:05.579Z,32.80
2018-07-22T11:04:34.076Z,32.80
2018-07-22T11:07:04.172Z,32.70
2018-07-22T11:09:32.547Z,31.80
2018-07-22T11:12:02.690Z,31.10
2018-07-22T11:14:31.637Z,31.70
2018-07-22T11:17:00.529Z,31.90
2018-07-22T11:19:29.680Z,31.60
2018-07-22T11:21:58.563Z,30.70
2018-07-22T11:24:28.784Z,29.80
2018-07-22T11:26:58.537Z,29.30
2018-07-22T11:29:27.143Z,29.30
2018-07-22T11:31:56.021Z,30.50
2018-07-22T11:34:25.440Z,31.60
2018-07-22T11:36:55.368Z,32.40
2018-07-22T11:39:25.058Z,32.50
2018-07-22T11:41:54.017Z,32.20
2018-07-22T11:44:22.621Z,31.80
2018-07-22T11:46:53.522Z,31.20
2018-07-22T11:49:22.397Z,31.10
2018-07-22T11:51:51.274Z,31.90
2018-07-22T11:54:20.527Z,32.80
2018-07-22T11:56:49.244Z,33.30
2018-07-22T11:59:19.295Z,32.30
2018-07-22T12:01:48.695Z,32.50
2018-07-22T12:04:18.364Z,31.80
2018-07-22T12:06:46.794Z,32.20
2018-07-22T12:09:16.327Z,31.40
2018-07-22T12:11:46.222Z,32.10
2018-07-22T12:14:14.956Z,32.70
2018-07-22T12:16:43.919Z,33.00
2018-07-22T12:19:13.350Z,33.40
2018-07-22T12:21:41.902Z,32.30
2018-07-22T12:24:10.350Z,32.40
2018-07-22T12:26:38.875Z,32.30
2018-07-22T12:29:07.555Z,32.00
2018-07-22T12:31:36.482Z,31.90
2018-07-22T12:34:05.470Z,31.90
2018-07-22T12:36:33.951Z,30.70
2018-07-22T12:39:03.185Z,30.80
2018-07-22T12:41:31.814Z,31.20
2018-07-22T12:44:01.154Z,32.10
2018-07-22T12:46:29.727Z,32.60
2018-07-22T12:48:58.675Z,32.90
2018-07-22T12:51:27.230Z,33.90
2018-07-22T12:53:57.163Z,32.60
2018-07-22T12:56:26.306Z,31.60
2018-07-22T12:58:55.443Z,30.90
2018-07-22T13:01:24.126Z,30.60
2018-07-22T13:03:52.649Z,30.80
2018-07-22T13:06:21.117Z,31.30
2018-07-22T13:08:49.851Z,31.70
2018-07-22T13:11:19.340Z,32.00
2018-07-22T13:13:47.706Z,31.50
2018-07-22T13:16:16.510Z,30.00
2018-07-22T13:18:45.068Z,30.10
2018-07-22T13:21:13.540Z,30.20
2018-07-22T13:23:42.176Z,29.00
2018-07-22T13:26:10.799Z,29.00
2018-07-22T13:28:39.404Z,29.20
2018-07-22T13:31:08.276Z,29.70
2018-07-22T13:33:36.982Z,30.00
2018-07-22T13:36:05.582Z,29.80
2018-07-22T13:38:34.253Z,29.40
2018-07-22T13:41:02.932Z,29.40
2018-07-22T13:43:31.490Z,29.20
2018-07-22T13:45:59.981Z,29.50
2018-07-22T13:48:28.474Z,29.80
2018-07-22T13:50:57.025Z,30.10
2018-07-22T13:53:25.434Z,29.60
2018-07-22T13:55:54.022Z,29.10
2018-07-22T13:58:22.478Z,28.80
2018-07-22T14:00:51.189Z,28.80
2018-07-22T14:03:21.094Z,28.80
2018-07-22T14:05:49.612Z,29.00
2018-07-22T14:08:18.321Z,29.50
2018-07-22T14:10:47.144Z,29.80
2018-07-22T14:13:15.677Z,29.50
2018-07-22T14:15:44.513Z,29.00
2018-07-22T14:18:13.524Z,29.00
2018-07-22T14:20:42.768Z,29.10
2018-07-22T14:23:11.911Z,29.00
2018-07-22T14:25:40.539Z,29.30
2018-07-22T14:28:10.280Z,29.70
2018-07-22T14:30:39.721Z,30.20
2018-07-22T14:33:09.604Z,30.30
2018-07-22T14:35:38.452Z,30.30
2018-07-22T14:38:07.122Z,30.00
2018-07-22T14:40:37.271Z,29.80
2018-07-22T14:43:06.858Z,29.60
2018-07-22T14:45:36.197Z,29.60
2018-07-22T14:48:04.770Z,28.90
2018-07-22T14:53:02.608Z,28.50
2018-07-22T14:55:31.328Z,28.30
2018-07-22T14:58:00.875Z,28.10
2018-07-22T15:00:29.359Z,27.80
2018-07-22T15:02:58.452Z,27.70
2018-07-22T15:05:26.850Z,27.80
2018-07-22T15:07:56.261Z,27.70
2018-07-22T15:10:24.865Z,27.50
2018-07-22T15:12:53.273Z,27.30
2018-07-22T15:15:21.729Z,27.40
2018-07-22T15:17:50.852Z,27.60
2018-07-22T15:20:19.277Z,27.60
2018-07-22T15:22:48.270Z,27.70
2018-07-22T15:25:16.986Z,27.90
2018-07-22T15:27:45.650Z,27.90
2018-07-22T15:30:14.564Z,27.90
2018-07-22T15:32:43.197Z,27.50
2018-07-22T15:35:12.804Z,27.20
2018-07-22T15:37:41.212Z,27.10
2018-07-22T15:40:10.575Z,27.20
2018-07-22T15:42:39.087Z,27.50
2018-07-22T15:45:07.510Z,27.50
2018-07-22T15:47:35.950Z,27.20
2018-07-22T15:50:05.875Z,27.10
2018-07-22T15:52:34.692Z,27.00
2018-07-22T15:55:03.562Z,27.00
2018-07-22T15:57:31.997Z,26.90
2018-07-22T16:00:00.396Z,27.10
2018-07-22T16:02:28.823Z,27.00
2018-07-22T16:04:57.443Z,27.00
2018-07-22T16:07:25.896Z,26.90
2018-07-22T16:09:54.528Z,27.00
2018-07-22T16:12:22.975Z,27.20
2018-07-22T16:14:51.696Z,27.50
2018-07-22T16:17:21.174Z,27.80
2018-07-22T16:19:49.537Z,27.90
2018-07-22T16:22:18.201Z,27.70
2018-07-22T16:24:46.839Z,27.70
2018-07-22T16:27:15.261Z,27.70
2018-07-22T16:29:43.776Z,27.10
2018-07-22T16:32:18.769Z,26.80
2018-07-22T16:34:48.782Z,26.60
2018-07-22T16:37:17.380Z,26.70
2018-07-22T16:39:45.976Z,26.70
2018-07-22T16:42:14.588Z,26.80
2018-07-22T16:44:44.082Z,26.80
2018-07-22T16:47:12.523Z,26.70
2018-07-22T16:49:41.281Z,26.80
2018-07-22T16:52:09.674Z,26.80
2018-07-22T16:54:38.292Z,26.80
2018-07-22T16:57:06.860Z,26.80
2018-07-22T16:59:36.143Z,26.90
2018-07-22T17:02:04.660Z,26.90
2018-07-22T17:04:36.752Z,26.70
2018-07-22T17:07:05.142Z,26.70
2018-07-22T17:09:33.938Z,26.50
2018-07-22T17:12:02.356Z,26.40
2018-07-22T17:14:30.739Z,26.40
2018-07-22T17:16:59.395Z,26.40
2018-07-22T17:19:28.403Z,26.40
2018-07-22T17:21:56.853Z,26.30
2018-07-22T17:24:25.802Z,26.30
2018-07-22T17:26:54.277Z,26.30
2018-07-22T17:29:22.862Z,26.20
2018-07-22T17:31:51.567Z,26.20
2018-07-22T17:34:20.077Z,26.20
2018-07-22T17:36:48.701Z,26.30
2018-07-22T17:39:17.802Z,26.40
2018-07-22T17:41:46.455Z,26.30
2018-07-22T17:44:16.017Z,26.30
2018-07-22T17:46:44.471Z,26.30
2018-07-22T17:49:13.699Z,26.20
2018-07-22T17:51:43.403Z,26.20
2018-07-22T17:54:11.908Z,26.10
2018-07-22T17:56:40.770Z,26.00
2018-07-22T17:59:09.279Z,26.00
2018-07-22T18:01:37.630Z,25.90
2018-07-22T18:04:06.950Z,25.90
2018-07-22T18:06:36.885Z,25.90
2018-07-22T18:09:07.791Z,25.90
2018-07-22T18:11:37.432Z,25.90
2018-07-22T18:14:05.948Z,25.90
2018-07-22T18:16:35.025Z,25.90
2018-07-22T18:21:32.572Z,25.90
2018-07-22T18:24:01.559Z,25.90
2018-07-22T18:26:30.548Z,25.90
2018-07-22T18:28:58.973Z,25.80
2018-07-22T18:31:27.787Z,25.80
2018-07-22T18:33:57.911Z,25.70
2018-07-22T18:36:30.500Z,25.60
2018-07-22T18:38:59.952Z,25.50
2018-07-22T18:41:28.805Z,25.40
2018-07-22T18:43:58.029Z,25.40
2018-07-22T18:46:26.681Z,25.20
2018-07-22T18:48:55.251Z,25.20
2018-07-22T18:51:23.832Z,25.00
2018-07-22T18:53:53.910Z,25.00
2018-07-22T18:56:22.690Z,24.90
2018-07-22T18:58:51.236Z,24.90
2018-07-22T19:01:20.126Z,24.80
2018-07-22T19:03:48.917Z,24.70
2018-07-22T19:06:17.768Z,24.70
2018-07-22T19:08:46.941Z,24.60
2018-07-22T19:11:15.548Z,24.50
2018-07-22T19:13:44.386Z,24.40
2018-07-22T19:16:12.896Z,24.40
2018-07-22T19:18:42.769Z,24.20
2018-07-22T19:21:11.723Z,24.20
2018-07-22T19:23:40.450Z,24.10
2018-07-22T19:26:09.764Z,24.00
2018-07-22T19:28:38.563Z,23.90
2018-07-22T19:31:07.232Z,23.70
2018-07-22T19:33:35.823Z,23.60
2018-07-22T19:36:06.157Z,23.50
2018-07-22T19:38:34.735Z,23.40
2018-07-22T19:41:03.350Z,23.30
2018-07-22T19:43:31.936Z,23.20
2018-07-22T19:46:01.120Z,23.10
2018-07-22T19:48:29.717Z,22.90
2018-07-22T19:50:58.404Z,22.90
2018-07-22T19:53:27.032Z,22.90
2018-07-22T19:55:55.656Z,22.70
2018-07-22T19:58:24.331Z,22.60
2018-07-22T20:00:52.842Z,22.50
2018-07-22T20:03:22.212Z,22.40
2018-07-22T20:05:50.703Z,22.30
2018-07-22T20:08:19.491Z,22.30
2018-07-22T20:10:48.041Z,22.30
2018-07-22T20:13:16.548Z,22.20
2018-07-22T20:15:45.160Z,22.10
2018-07-22T20:18:13.904Z,22.00
2018-07-22T20:20:42.508Z,22.00
2018-07-22T20:23:11.168Z,22.00
2018-07-22T20:25:39.707Z,22.10
2018-07-22T20:28:08.102Z,22.00
2018-07-22T20:30:36.716Z,22.00
2018-07-22T20:33:05.971Z,22.00
2018-07-22T20:35:34.498Z,22.00
2018-07-22T20:38:03.109Z,21.90
2018-07-22T20:40:31.792Z,21.80
2018-07-22T20:43:00.628Z,21.70
2018-07-22T20:45:29.045Z,21.60
2018-07-22T20:47:57.463Z,21.50
2018-07-22T20:50:25.849Z,21.50
2018-07-22T20:52:54.330Z,21.50
2018-07-22T20:55:23.138Z,21.50
2018-07-22T20:57:51.513Z,21.50
2018-07-22T21:00:20.146Z,21.50
2018-07-22T21:02:49.019Z,21.50
2018-07-22T21:05:17.478Z,21.60
2018-07-22T21:07:45.866Z,21.50
2018-07-22T21:10:14.378Z,21.50
2018-07-22T21:12:52.650Z,21.50
2018-07-22T21:15:21.378Z,21.40
2018-07-22T21:17:50.703Z,21.30
2018-07-22T21:20:20.013Z,21.20
2018-07-22T21:22:48.483Z,21.10
2018-07-22T21:25:17.397Z,21.10
2018-07-22T21:27:46.056Z,21.10
2018-07-22T21:30:14.857Z,21.10
2018-07-22T21:32:43.459Z,21.10
2018-07-22T21:35:11.800Z,21.10
2018-07-22T21:37:40.335Z,21.00
2018-07-22T21:40:08.731Z,21.00
2018-07-22T21:42:37.134Z,21.00
2018-07-22T21:45:06.435Z,21.00
2018-07-22T21:47:35.286Z,20.90
2018-07-22T21:50:04.265Z,20.80
2018-07-22T21:52:32.676Z,20.80
2018-07-22T21:55:01.229Z,20.70
2018-07-22T21:57:29.563Z,20.60
2018-07-22T21:59:57.896Z,20.60
2018-07-22T22:02:30.465Z,20.60
2018-07-22T22:04:59.094Z,20.50
2018-07-22T22:07:27.584Z,20.40
2018-07-22T22:09:55.947Z,20.30
2018-07-22T22:12:24.482Z,20.30
2018-07-22T22:14:53.248Z,20.20
2018-07-22T22:17:22.013Z,20.20
2018-07-22T22:19:50.504Z,20.10
2018-07-22T22:22:18.928Z,20.00
2018-07-22T22:24:47.687Z,20.00
2018-07-22T22:27:16.051Z,20.00
2018-07-22T22:29:45.266Z,20.00
2018-07-22T22:32:13.637Z,20.00
2018-07-22T22:34:42.074Z,20.10
2018-07-22T22:37:10.579Z,20.20
2018-07-22T22:39:39.030Z,20.30
2018-07-22T22:42:07.395Z,20.40
2018-07-22T22:44:35.971Z,20.40
2018-07-22T22:47:04.546Z,20.40
2018-07-22T22:49:33.000Z,20.60
2018-07-22T22:52:01.468Z,20.80
2018-07-22T22:54:29.835Z,20.80
2018-07-22T22:56:59.000Z,20.80
2018-07-22T22:59:27.379Z,20.80
2018-07-22T23:01:55.911Z,20.80
2018-07-22T23:04:24.327Z,20.70
2018-07-22T23:06:52.895Z,20.60
2018-07-22T23:09:21.356Z,20.50
2018-07-22T23:11:49.729Z,20.50
2018-07-22T23:14:18.421Z,20.50
2018-07-22T23:16:46.885Z,20.60
2018-07-22T23:19:15.256Z,20.50
2018-07-22T23:21:43.582Z,20.60
2018-07-22T23:24:12.243Z,20.60
2018-07-22T23:26:40.710Z,20.60
2018-07-22T23:29:09.161Z,20.50
2018-07-22T23:31:37.636Z,20.50
2018-07-22T23:34:07.044Z,20.40
2018-07-22T23:36:35.648Z,20.40
2018-07-22T23:39:06.115Z,20.40
2018-07-22T23:41:34.556Z,20.40
2018-07-22T23:44:02.979Z,20.30
2018-07-22T23:46:31.728Z,20.20
2018-07-22T23:49:00.210Z,20.20
2018-07-22T23:51:28.584Z,20.20
2018-07-22T23:53:56.906Z,20.10
2018-07-22T23:56:25.355Z,19.90
2018-07-22T23:58:54.389Z,19.90
